Gary Chicago International Airport Gary US
ICAO: KGYY
IATA: GYY
Category: Medium
Scheduled Services: No

Elevation: 591 ft
TransAlt. 18000 ft.

Airport Communications:
CHICAGO APP/DEP:133.1
ATIS:120.625
CTAF:125.6
GND:121.9
KANKAKEE RDO:114.2
TERRE HAUTE RDO:123.65
TWR:125.6

KGYY Zoom In..

If Map Doesn't Load, Click Here

Runways:

(A) RW 02 length 3603 ft width 100 ft
---- / hdg 23

(B) RW 12 length 7003 ft width 150 ft
---- / hdg 126

(C) RW 20 length 3603 ft width 100 ft
---- / hdg 203

(D) RW 30 length 7003 ft width 150 ft
ILS 108.75 / hdg 306

Location; KGYY
Day. 21 / Time. 15.45 Zulu
* Altimeter: 29.90
* Temperature: 24° c. 75.2°f.
* Wind from: 260° Speed 18 kn.
Dewpoint: 18° c.
Visibility: 10 Statute Miles.
Clouds: Broken 3600 ft.
Clouds: Broken 18000 ft.

KGYY 211545Z 26018KT 10SM BKN036 BKN180 24/18 A2990


Wind From 260°
Speed 18 kn.

 
 
jpsmedia.com for Web Design worldairports.se 2018   terms of use